Time;durP1;ratioP1;P1;durP2;ratioP2;P2;SDS_P1;SDS_P2;PMS_P1;PMS_P2;Temp;Humidity;BMP_temperature;BMP_pressure;BME280_temperature;BME280_humidity;BME280_pressure;Samples;Min_cycle;Max_cycle;Signal;HPM_P1;HPM_P2
2022/01/16 00:00:24;;;;;;;12.25;7.13;;;7.20;99.90;;;;;;5030597;28;20411;-80
2022/01/16 00:06:28;;;;;;;;;;;;;;;;;;;;;
2022/01/16 00:09:03;;;;;;;9.70;7.30;;;7.10;99.90;;;;;;5026621;28;20029;-79
2022/01/16 00:11:44;;;;;;;8.25;6.53;;;7.10;99.90;;;;;;5013008;28;20033;-79
2022/01/16 00:15:00;;;;;;;8.77;7.07;;;7.10;99.90;;;;;;5030479;28;20030;-79
2022/01/16 00:18:39;;;;;;;;;;;;;;;;;;;;;
2022/01/16 00:21:41;;;;;;;;;;;;;;;;;;;;;
2022/01/16 00:24:09;;;;;;;13.25;7.07;;;7.10;99.90;;;;;;5032280;28;20024;-79
2022/01/16 00:26:46;;;;;;;10.00;6.47;;;7.10;99.90;;;;;;5034958;28;20025;-79
2022/01/16 00:29:27;;;;;;;9.40;5.90;;;7.10;99.90;;;;;;5036155;28;20022;-78
2022/01/16 00:32:08;;;;;;;8.90;6.47;;;7.00;99.90;;;;;;5027266;28;20048;-78
2022/01/16 00:34:37;;;;;;;10.90;7.15;;;7.00;99.90;;;;;;5037859;28;20026;-78
2022/01/16 00:37:41;;;;;;;8.40;7.00;;;7.00;99.90;;;;;;5017357;28;20029;-78
2022/01/16 00:44:05;;;;;;;10.20;6.43;;;6.90;99.90;;;;;;4945691;29;20026;-78
2022/01/16 00:47:07;;;;;;;9.65;6.70;;;6.90;99.90;;;;;;4951112;28;20031;-78
2022/01/16 00:53:43;;;;;;;11.57;6.85;;;6.90;99.90;;;;;;4910316;29;20084;-79
2022/01/16 00:56:50;;;;;;;11.60;6.53;;;6.80;99.90;;;;;;4856506;29;20038;-79
2022/01/16 00:59:56;;;;;;;10.85;6.82;;;6.80;99.90;;;;;;4841988;29;20026;-79
2022/01/16 01:06:23;;;;;;;11.32;6.80;;;6.90;99.90;;;;;;4864747;29;20486;-79
2022/01/16 01:09:02;;;;;;;7.83;6.30;;;6.90;99.90;;;;;;4785695;29;20039;-79
2022/01/16 01:11:37;;;;;;;11.38;6.38;;;6.90;99.90;;;;;;4942118;28;20035;-79
2022/01/16 01:14:23;;;;;;;9.50;6.18;;;6.80;99.90;;;;;;4953069;28;20130;-79
2022/01/16 01:17:03;;;;;;;8.95;6.43;;;6.80;99.90;;;;;;4942840;28;20035;-79
2022/01/16 01:19:53;;;;;;;8.98;6.70;;;6.80;99.90;;;;;;4965419;28;20073;-79
2022/01/16 01:23:03;;;;;;;11.95;6.28;;;6.80;99.90;;;;;;4975258;28;20041;-78
2022/01/16 01:40:26;;;;;;;10.60;5.97;;;6.80;99.90;;;;;;4845498;29;20504;-79
2022/01/16 01:56:43;;;;;;;10.10;5.97;;;6.60;99.90;;;;;;4862404;29;20132;-80
2022/01/16 02:03:54;;;;;;;;;;;;;;;;;;;;;
2022/01/16 02:10:59;;;;;;;10.18;6.88;;;6.60;99.90;;;;;;4913828;29;20047;-78
2022/01/16 02:36:45;;;;;;;12.20;5.65;;;6.50;99.90;;;;;;4838657;29;20060;-79
2022/01/16 02:39:52;;;;;;;7.70;5.50;;;6.60;99.90;;;;;;4838903;29;20097;-79
2022/01/16 02:43:16;;;;;;;9.07;5.80;;;6.50;99.90;;;;;;4882155;29;20042;-79
2022/01/16 03:06:44;;;;;;;9.05;5.40;;;6.60;99.90;;;;;;4899364;29;20059;-79
2022/01/16 03:23:18;;;;;;;8.05;5.10;;;6.60;99.90;;;;;;4822371;29;20481;-79
2022/01/16 03:25:53;;;;;;;9.15;5.47;;;6.60;99.90;;;;;;4773857;29;20038;-79
2022/01/16 03:29:05;;;;;;;7.38;5.72;;;6.60;99.90;;;;;;4967403;28;20038;-79
2022/01/16 03:31:33;;;;;;;7.97;5.35;;;6.60;99.90;;;;;;4958525;28;20030;-79
2022/01/16 03:35:07;;;;;;;7.40;5.20;;;6.60;99.90;;;;;;4970401;28;20668;-79
2022/01/16 03:45:26;;;;;;;;;;;;;;;;;;;;;
2022/01/16 03:48:06;;;;;;;7.68;5.18;;;6.60;99.90;;;;;;4936646;28;20035;-79
2022/01/16 03:57:23;;;;;;;8.50;5.13;;;6.50;99.90;;;;;;4887979;29;20041;-81
2022/01/16 04:03:23;;;;;;;8.32;5.55;;;6.50;99.90;;;;;;4919235;29;20103;-79
2022/01/16 04:38:01;;;;;;;8.68;4.97;;;6.30;99.90;;;;;;4730484;30;20040;-78
2022/01/16 04:44:36;;;;;;;7.55;5.30;;;6.20;99.90;;;;;;4829869;29;20048;-78
2022/01/16 04:57:22;;;;;;;7.18;5.22;;;6.20;99.90;;;;;;4864980;29;20104;-78
2022/01/16 05:04:00;;;;;;;9.38;5.38;;;6.20;99.90;;;;;;4897951;29;20043;-79
2022/01/16 05:16:48;;;;;;;;;;;;;;;;;;;;;
2022/01/16 05:40:50;;;;;;;8.07;5.18;;;6.10;99.90;;;;;;4802977;29;20065;-79
2022/01/16 05:44:06;;;;;;;6.30;4.75;;;6.10;99.90;;;;;;4760896;30;20143;-79
2022/01/16 05:46:38;;;;;;;8.45;5.28;;;6.00;99.90;;;;;;4752529;30;20763;-78
2022/01/16 05:57:10;;;;;;;7.75;5.55;;;6.00;99.90;;;;;;4766813;30;20782;-78
2022/01/16 06:03:38;;;;;;;7.50;5.13;;;6.00;99.90;;;;;;4785569;29;20054;-78
2022/01/16 06:10:35;;;;;;;;;;;;;;;;;;;;;
2022/01/16 06:13:47;;;;;;;8.70;5.57;;;6.00;99.90;;;;;;4800847;29;20286;-79
2022/01/16 06:20:35;;;;;;;7.50;5.60;;;6.00;99.90;;;;;;4783449;29;20555;-79
2022/01/16 06:26:20;;;;;;;7.70;5.40;;;6.00;99.90;;;;;;4858120;29;20282;-79
2022/01/16 06:32:51;;;;;;;9.00;5.68;;;5.90;99.90;;;;;;4951844;28;20078;-78
2022/01/16 06:35:42;;;;;;;7.57;5.90;;;5.90;99.90;;;;;;4952288;28;20054;-79
2022/01/16 06:38:45;;;;;;;7.13;5.53;;;5.90;99.90;;;;;;4951703;28;20047;-79
2022/01/16 06:44:10;;;;;;;7.45;4.90;;;5.90;99.90;;;;;;4909385;29;20377;-78
2022/01/16 06:49:40;;;;;;;7.20;5.40;;;5.90;99.90;;;;;;4913691;29;20040;-79
2022/01/16 06:52:30;;;;;;;8.20;6.18;;;5.90;99.90;;;;;;4912835;29;20131;-79
2022/01/16 06:55:19;;;;;;;6.43;5.45;;;5.90;99.90;;;;;;4939658;28;20481;-79
2022/01/16 06:57:54;;;;;;;8.75;5.70;;;5.90;99.90;;;;;;4982765;28;20065;-79
2022/01/16 07:00:26;;;;;;;9.25;6.10;;;5.90;99.90;;;;;;4994961;28;20034;-79
2022/01/16 07:03:14;;;;;;;7.43;5.57;;;5.90;99.90;;;;;;4994156;28;20374;-79
2022/01/16 07:06:04;;;;;;;7.97;5.20;;;5.90;99.90;;;;;;5005070;28;20057;-79
2022/01/16 07:08:30;;;;;;;7.68;5.05;;;5.90;99.90;;;;;;5010518;28;20061;-79
2022/01/16 07:11:00;;;;;;;6.70;5.32;;;5.90;99.90;;;;;;5013695;28;20060;-79
2022/01/16 07:13:30;;;;;;;6.28;5.25;;;6.00;99.90;;;;;;5029750;28;20025;-79
2022/01/16 07:15:56;;;;;;;6.85;5.00;;;6.00;99.90;;;;;;5031601;28;20033;-79
2022/01/16 07:18:23;;;;;;;7.55;5.10;;;6.00;99.90;;;;;;5005504;28;20033;-79
2022/01/16 07:21:05;;;;;;;6.60;4.75;;;6.00;99.90;;;;;;5011909;28;20061;-79
2022/01/16 07:23:34;;;;;;;7.30;5.65;;;6.10;99.90;;;;;;5009806;28;20037;-79
2022/01/16 07:26:08;;;;;;;8.95;4.97;;;6.20;99.90;;;;;;5000526;28;20092;-79
2022/01/16 07:28:48;;;;;;;8.65;5.30;;;6.20;99.90;;;;;;5028644;28;20029;-79
2022/01/16 07:31:27;;;;;;;6.55;5.05;;;6.30;99.90;;;;;;5013075;28;20021;-79
2022/01/16 07:34:05;;;;;;;8.70;5.45;;;6.40;99.90;;;;;;5044408;28;20029;-78
2022/01/16 07:36:37;;;;;;;7.15;4.95;;;6.40;99.90;;;;;;5038288;28;20480;-79
2022/01/16 07:39:44;;;;;;;;;;;;;;;;;;;;;
2022/01/16 07:42:15;;;;;;;8.70;4.60;;;6.50;99.90;;;;;;5034204;28;20056;-79
2022/01/16 07:45:02;;;;;;;7.03;4.80;;;6.60;99.90;;;;;;5033499;28;20040;-80
2022/01/16 07:47:40;;;;;;;6.88;5.10;;;6.60;99.90;;;;;;5021430;28;20091;-83
2022/01/16 07:50:07;;;;;;;6.63;4.72;;;6.70;99.90;;;;;;5024666;28;20124;-80
2022/01/16 07:53:08;;;;;;;10.43;7.18;;;6.80;99.90;;;;;;5017374;28;20025;-80
2022/01/16 07:55:40;;;;;;;14.48;8.07;;;6.90;99.90;;;;;;5019816;28;20113;-82
2022/01/16 07:58:15;;;;;;;14.77;8.75;;;6.90;99.90;;;;;;5030375;28;20618;-80
2022/01/16 08:00:56;;;;;;;26.08;14.18;;;7.00;99.90;;;;;;5031244;28;20041;-80
2022/01/16 08:03:23;;;;;;;19.80;12.45;;;7.10;99.90;;;;;;5029571;28;20045;-80
2022/01/16 08:06:07;;;;;;;11.52;8.00;;;7.20;99.90;;;;;;5030621;28;20029;-80
2022/01/16 08:08:39;;;;;;;19.98;12.07;;;7.30;99.90;;;;;;5029602;28;20022;-79
2022/01/16 08:11:11;;;;;;;12.85;7.00;;;7.30;99.90;;;;;;4996219;28;21225;-81
2022/01/16 08:13:40;;;;;;;9.82;6.20;;;7.40;99.90;;;;;;5029501;28;20022;-80
2022/01/16 08:16:17;;;;;;;8.40;5.85;;;7.40;99.90;;;;;;5030378;28;20492;-80
2022/01/16 08:18:52;;;;;;;6.95;5.25;;;7.40;99.90;;;;;;5012220;28;20030;-81
2022/01/16 08:21:18;;;;;;;5.97;5.20;;;7.50;99.90;;;;;;4999100;28;20021;-81
2022/01/16 08:23:47;;;;;;;8.13;5.38;;;7.60;99.90;;;;;;5008738;28;20159;-80
2022/01/16 08:26:15;;;;;;;8.18;5.32;;;7.70;99.90;;;;;;5030477;28;20028;-80
2022/01/16 08:28:46;;;;;;;8.98;4.85;;;7.80;99.90;;;;;;5024525;28;20409;-81
2022/01/16 08:31:18;;;;;;;11.20;5.13;;;7.80;99.90;;;;;;5030185;28;20510;-83
2022/01/16 08:33:44;;;;;;;6.68;4.45;;;7.90;99.90;;;;;;5023849;28;20029;-81
2022/01/16 08:36:25;;;;;;;5.30;4.32;;;8.00;99.90;;;;;;4999204;28;20064;-80
2022/01/16 08:39:21;;;;;;;8.68;4.97;;;8.10;99.90;;;;;;5026867;28;20036;-80
2022/01/16 08:41:49;;;;;;;6.65;4.90;;;8.20;99.90;;;;;;4999318;28;20116;-80
2022/01/16 08:44:15;;;;;;;10.30;5.47;;;8.30;99.90;;;;;;5032152;28;20095;-83
2022/01/16 08:46:43;;;;;;;7.95;5.35;;;8.40;99.90;;;;;;5033681;28;20519;-80
2022/01/16 08:49:09;;;;;;;14.45;8.98;;;8.40;99.90;;;;;;5034289;28;20049;-81
2022/01/16 08:51:35;;;;;;;8.38;5.97;;;8.50;99.90;;;;;;5034455;28;20045;-80
2022/01/16 08:54:10;;;;;;;8.25;5.43;;;8.60;99.90;;;;;;5034145;28;20013;-80
2022/01/16 08:56:38;;;;;;;4.85;4.32;;;8.70;99.90;;;;;;5020842;28;20041;-81
2022/01/16 08:59:04;;;;;;;7.97;4.70;;;8.80;99.90;;;;;;5033908;28;20488;-81
2022/01/16 09:01:31;;;;;;;8.15;4.85;;;8.90;99.90;;;;;;5027592;28;20476;-80
2022/01/16 09:03:57;;;;;;;9.30;4.63;;;8.90;99.90;;;;;;5023137;28;20113;-80
2022/01/16 09:06:29;;;;;;;7.28;4.90;;;9.00;99.90;;;;;;5043920;28;20108;-80
2022/01/16 09:08:58;;;;;;;18.52;13.27;;;9.10;99.90;;;;;;5037558;28;20087;-80
2022/01/16 09:11:27;;;;;;;12.73;10.32;;;9.20;99.90;;;;;;5034849;28;20157;-83
2022/01/16 09:13:58;;;;;;;9.70;7.30;;;9.20;99.90;;;;;;5010017;28;20041;-82
2022/01/16 09:16:24;;;;;;;9.48;7.78;;;9.30;99.90;;;;;;5020154;28;20025;-81
2022/01/16 09:18:53;;;;;;;24.48;14.18;;;9.40;99.90;;;;;;4999650;28;20514;-82
2022/01/16 09:21:19;;;;;;;33.88;18.00;;;9.50;99.90;;;;;;5034627;28;20014;-83
2022/01/16 09:23:59;;;;;;;21.45;9.95;;;9.60;99.90;;;;;;5033830;28;20436;-81
2022/01/16 09:26:26;;;;;;;10.23;6.80;;;9.70;99.90;;;;;;5033780;28;20013;-83
2022/01/16 09:28:55;;;;;;;151.27;56.90;;;9.80;99.90;;;;;;5033788;28;20030;-89
2022/01/16 09:31:21;;;;;;;178.85;73.35;;;9.90;99.90;;;;;;5015028;28;20472;-83
2022/01/16 09:33:57;;;;;;;19.10;11.18;;;9.90;99.90;;;;;;5033064;28;20029;-85
2022/01/16 09:36:23;;;;;;;34.38;18.25;;;10.00;99.90;;;;;;5028914;28;20503;-84
2022/01/16 09:38:49;;;;;;;25.70;14.23;;;10.10;99.90;;;;;;5015768;28;20117;-83
2022/01/16 09:41:14;;;;;;;40.40;20.02;;;10.20;99.90;;;;;;5022675;28;20504;-80
2022/01/16 09:43:41;;;;;;;45.90;18.92;;;10.30;99.90;;;;;;5033349;28;20024;-86
2022/01/16 09:46:12;;;;;;;97.72;33.97;;;10.50;99.90;;;;;;5015044;28;20022;-82
2022/01/16 09:48:42;;;;;;;59.97;20.15;;;10.50;99.90;;;;;;5028202;28;20064;-83
2022/01/16 09:51:07;;;;;;;163.77;64.32;;;10.60;99.90;;;;;;5028553;28;20105;-81
2022/01/16 09:53:33;;;;;;;325.13;145.18;;;10.80;99.90;;;;;;5032908;28;20117;-81
2022/01/16 09:56:37;;;;;;;28.95;15.18;;;10.80;99.90;;;;;;5038614;28;20021;-85
2022/01/16 09:59:03;;;;;;;53.63;30.67;;;11.00;99.90;;;;;;5030560;28;20025;-81
2022/01/16 10:01:29;;;;;;;9.15;6.70;;;11.10;99.90;;;;;;5031461;28;20029;-81
2022/01/16 10:03:55;;;;;;;7.35;4.70;;;11.20;99.90;;;;;;5035284;28;20100;-81
2022/01/16 10:06:22;;;;;;;12.48;6.20;;;11.20;99.90;;;;;;5024333;28;20091;-81
2022/01/16 10:08:51;;;;;;;16.23;6.15;;;11.30;99.90;;;;;;5028559;28;20030;-80
2022/01/16 10:11:32;;;;;;;18.80;7.80;;;11.30;99.90;;;;;;5015454;28;20560;-80
2022/01/16 10:14:03;;;;;;;16.38;7.55;;;11.30;99.90;;;;;;5010782;28;20385;-81
2022/01/16 10:16:35;;;;;;;40.65;11.70;;;11.30;99.90;;;;;;5010329;28;20037;-80
2022/01/16 10:19:02;;;;;;;21.95;11.45;;;11.30;99.90;;;;;;5004306;28;20489;-80
2022/01/16 10:21:37;;;;;;;11.80;7.35;;;11.30;99.90;;;;;;5005604;28;20022;-80
2022/01/16 10:24:20;;;;;;;21.40;7.60;;;11.20;99.90;;;;;;5003416;28;20030;-80
2022/01/16 10:26:47;;;;;;;15.15;6.88;;;11.20;99.90;;;;;;4999923;28;20484;-80
2022/01/16 10:29:23;;;;;;;9.55;6.28;;;11.20;99.90;;;;;;5014681;28;20459;-80
2022/01/16 10:31:52;;;;;;;15.82;6.75;;;11.20;99.90;;;;;;5013455;28;20507;-80
2022/01/16 10:34:41;;;;;;;14.40;7.70;;;11.20;99.90;;;;;;5012531;28;20053;-80
2022/01/16 10:37:21;;;;;;;9.43;7.20;;;11.20;99.90;;;;;;5012285;28;20109;-83
2022/01/16 10:40:17;;;;;;;10.65;6.35;;;11.30;99.90;;;;;;5011979;28;20033;-85
2022/01/16 10:42:55;;;;;;;11.00;7.07;;;11.40;99.90;;;;;;5012130;28;20026;-80
2022/01/16 10:45:27;;;;;;;10.18;6.38;;;11.50;99.90;;;;;;5009446;28;20030;-79
2022/01/16 10:48:06;;;;;;;14.32;7.10;;;11.50;99.90;;;;;;5009765;28;20038;-79
2022/01/16 10:50:36;;;;;;;10.98;7.40;;;11.60;99.90;;;;;;5004588;28;20037;-79
2022/01/16 10:53:06;;;;;;;12.57;6.90;;;11.70;99.90;;;;;;5012037;28;20026;-78
2022/01/16 10:55:47;;;;;;;10.10;8.13;;;11.70;99.90;;;;;;5004509;28;20052;-78
2022/01/16 10:58:29;;;;;;;15.70;8.68;;;11.70;99.90;;;;;;5011609;28;20018;-78
2022/01/16 11:01:03;;;;;;;13.45;8.38;;;11.60;99.90;;;;;;5012169;28;20030;-78
2022/01/16 11:03:38;;;;;;;9.25;7.15;;;11.60;99.90;;;;;;5010723;28;20030;-78
2022/01/16 11:06:05;;;;;;;13.05;9.00;;;11.60;99.90;;;;;;5012208;28;20045;-78
2022/01/16 11:08:35;;;;;;;9.52;7.05;;;11.60;99.90;;;;;;5012136;28;20401;-79
2022/01/16 11:11:00;;;;;;;11.93;5.68;;;11.70;99.90;;;;;;5033475;28;20041;-80
2022/01/16 11:13:32;;;;;;;6.47;5.47;;;11.70;99.90;;;;;;5022702;28;20452;-81
2022/01/16 11:16:03;;;;;;;8.02;5.88;;;11.70;99.80;;;;;;5027546;28;20064;-80
2022/01/16 11:18:29;;;;;;;8.70;6.00;;;11.70;99.80;;;;;;5039259;28;20029;-79
2022/01/16 11:26:23;;;;;;;7.30;5.53;;;11.70;99.90;;;;;;4975277;28;20054;-79
2022/01/16 11:28:52;;;;;;;6.80;5.43;;;11.70;99.90;;;;;;5023387;28;20434;-79
2022/01/16 11:31:18;;;;;;;7.63;5.47;;;11.80;99.90;;;;;;5030195;28;20029;-79
2022/01/16 11:33:46;;;;;;;9.18;5.63;;;11.90;99.90;;;;;;5031330;28;20594;-79
2022/01/16 11:36:27;;;;;;;7.55;6.22;;;11.80;99.90;;;;;;5023350;28;20064;-79
2022/01/16 11:39:00;;;;;;;8.82;6.07;;;11.70;99.90;;;;;;5028518;28;20026;-79
2022/01/16 11:41:36;;;;;;;9.63;6.43;;;11.60;99.90;;;;;;5036229;28;20057;-83
2022/01/16 11:44:21;;;;;;;6.85;5.90;;;11.50;99.90;;;;;;5031438;28;20460;-79
2022/01/16 11:46:53;;;;;;;9.20;6.00;;;11.60;99.90;;;;;;5019882;28;20048;-79
2022/01/16 11:49:43;;;;;;;10.68;5.80;;;11.50;99.90;;;;;;5030286;28;20022;-79
2022/01/16 11:52:19;;;;;;;8.23;5.90;;;11.50;99.90;;;;;;5025730;28;20026;-79
2022/01/16 11:54:46;;;;;;;8.65;7.13;;;11.50;99.90;;;;;;5030199;28;20025;-79
2022/01/16 11:57:29;;;;;;;10.90;6.78;;;11.50;99.90;;;;;;5030780;28;20032;-79
2022/01/16 12:00:20;;;;;;;14.95;9.48;;;11.60;99.90;;;;;;5027612;28;20076;-84
2022/01/16 12:02:52;;;;;;;13.88;9.60;;;11.60;99.90;;;;;;5019734;28;20084;-80
2022/01/16 12:05:26;;;;;;;15.45;10.73;;;11.50;99.90;;;;;;5029457;28;20033;-82
2022/01/16 12:07:57;;;;;;;15.50;10.77;;;11.60;99.90;;;;;;5006236;28;20052;-81
2022/01/16 12:10:57;;;;;;;;;;;;;;;;;;;;;
2022/01/16 12:13:44;;;;;;;15.60;11.85;;;11.60;99.90;;;;;;5014217;28;20112;-79
2022/01/16 12:16:43;;;;;;;15.98;10.95;;;11.60;99.90;;;;;;4990040;28;20028;-80
2022/01/16 12:19:32;;;;;;;14.23;10.98;;;11.60;99.90;;;;;;4982576;28;20023;-79
2022/01/16 12:21:58;;;;;;;18.38;12.40;;;11.60;99.90;;;;;;4992405;28;20030;-83
2022/01/16 12:24:50;;;;;;;19.08;13.50;;;11.50;99.90;;;;;;5012065;28;20408;-80
2022/01/16 12:27:44;;;;;;;21.73;12.82;;;11.60;99.90;;;;;;5009893;28;20045;-81
2022/01/16 12:30:35;;;;;;;20.27;13.05;;;11.60;99.90;;;;;;5005221;28;20026;-84
2022/01/16 12:33:09;;;;;;;15.27;12.40;;;11.70;99.90;;;;;;5006339;28;20026;-82
2022/01/16 12:36:19;;;;;;;14.93;12.30;;;12.20;99.90;;;;;;4998796;28;20544;-83
2022/01/16 12:39:01;;;;;;;19.40;14.50;;;13.00;99.90;;;;;;4930519;29;20035;-80
2022/01/16 12:41:35;;;;;;;22.77;14.80;;;14.50;99.90;;;;;;4992634;28;20370;-83
2022/01/16 12:44:17;;;;;;;20.58;14.43;;;15.90;99.90;;;;;;4989120;28;20034;-84
2022/01/16 12:46:48;;;;;;;22.38;14.93;;;16.70;99.90;;;;;;5010812;28;20034;-83
2022/01/16 12:49:19;;;;;;;26.60;19.92;;;17.20;99.90;;;;;;5008235;28;20102;-86
2022/01/16 12:51:48;;;;;;;32.17;20.48;;;17.60;99.90;;;;;;4988173;28;20396;-84
2022/01/16 12:54:23;;;;;;;40.53;23.48;;;17.70;99.90;;;;;;5009213;28;20018;-83
2022/01/16 12:56:54;;;;;;;28.35;21.33;;;17.70;99.90;;;;;;5010240;28;20076;-85
2022/01/16 12:59:22;;;;;;;28.98;19.42;;;17.20;99.90;;;;;;4993603;28;20030;-85
2022/01/16 13:02:05;;;;;;;36.15;23.00;;;17.20;99.90;;;;;;4979465;28;20030;-84
2022/01/16 13:04:43;;;;;;;36.50;22.38;;;17.00;99.90;;;;;;5005814;28;20025;-83
2022/01/16 13:07:15;;;;;;;39.47;28.05;;;16.80;99.90;;;;;;5009358;28;20077;-82
2022/01/16 13:09:41;;;;;;;35.80;24.23;;;16.60;99.90;;;;;;5011810;28;20481;-82
2022/01/16 13:12:12;;;;;;;34.95;25.17;;;16.60;99.90;;;;;;5029914;28;20064;-82
2022/01/16 13:14:43;;;;;;;41.22;27.60;;;16.40;99.90;;;;;;5030396;28;20040;-82
2022/01/16 13:17:17;;;;;;;36.00;26.77;;;16.30;99.90;;;;;;5004191;28;20060;-82
2022/01/16 13:22:13;;;;;;;39.95;26.42;;;16.20;99.90;;;;;;5023131;28;20056;-84
2022/01/16 13:24:55;;;;;;;37.10;29.27;;;16.40;99.90;;;;;;5030009;28;20053;-81
2022/01/16 13:27:29;;;;;;;37.72;27.33;;;16.40;99.90;;;;;;5029191;28;20040;-80
2022/01/16 13:30:26;;;;;;;33.30;27.27;;;17.20;99.90;;;;;;5031386;28;20029;-80
2022/01/16 13:33:01;;;;;;;40.55;28.65;;;17.20;99.90;;;;;;5014617;28;20061;-80
2022/01/16 13:35:29;;;;;;;46.03;29.23;;;17.00;99.90;;;;;;5031752;28;20537;-80
2022/01/16 13:38:30;;;;;;;32.90;27.27;;;17.50;99.90;;;;;;5026455;28;20030;-79
2022/01/16 13:40:56;;;;;;;37.58;26.88;;;18.10;99.90;;;;;;5005956;28;20496;-82
2022/01/16 13:43:29;;;;;;;38.88;31.23;;;18.60;99.90;;;;;;5031618;28;20095;-82
2022/01/16 13:45:56;;;;;;;43.97;36.42;;;19.00;99.90;;;;;;5033463;28;20025;-82
2022/01/16 13:48:29;;;;;;;49.47;38.92;;;18.80;99.90;;;;;;5031270;28;20026;-83
2022/01/16 13:50:58;;;;;;;52.72;40.20;;;18.30;99.90;;;;;;5028507;28;20052;-83
2022/01/16 13:53:33;;;;;;;50.08;39.15;;;17.90;99.90;;;;;;4999203;28;20607;-82
2022/01/16 13:56:04;;;;;;;55.45;41.17;;;18.00;99.90;;;;;;5033182;28;20103;-83
2022/01/16 13:58:46;;;;;;;63.00;43.40;;;18.10;99.90;;;;;;5031516;28;20451;-82
2022/01/16 14:01:13;;;;;;;47.08;37.83;;;18.30;99.90;;;;;;5033033;28;20025;-83
2022/01/16 14:03:57;;;;;;;47.17;35.97;;;18.60;99.90;;;;;;5029689;28;20068;-82
2022/01/16 14:06:33;;;;;;;60.60;38.53;;;18.60;99.90;;;;;;5032836;28;20029;-83
2022/01/16 14:08:59;;;;;;;48.70;37.40;;;18.60;99.90;;;;;;5031699;28;20108;-82
2022/01/16 14:11:27;;;;;;;52.80;41.03;;;18.90;99.90;;;;;;5037481;28;20091;-81
2022/01/16 14:13:56;;;;;;;53.25;44.70;;;18.60;99.90;;;;;;5032978;28;20017;-81
2022/01/16 14:22:25;;;;;;;65.72;47.80;;;16.40;99.90;;;;;;5028172;28;20029;-83
2022/01/16 14:24:56;;;;;;;63.35;47.72;;;16.20;99.90;;;;;;5030569;28;20502;-82
2022/01/16 14:27:25;;;;;;;61.03;47.13;;;16.20;99.90;;;;;;5028561;28;20447;-82
2022/01/16 14:29:56;;;;;;;65.70;46.70;;;16.20;99.90;;;;;;5025928;28;20028;-85
2022/01/16 14:32:29;;;;;;;68.13;52.03;;;16.00;99.90;;;;;;5023365;28;20105;-81
2022/01/16 14:35:01;;;;;;;69.53;51.58;;;15.50;99.90;;;;;;5032865;28;20022;-83
2022/01/16 14:37:29;;;;;;;70.80;53.10;;;14.60;99.90;;;;;;5028615;28;20017;-84
2022/01/16 14:39:55;;;;;;;71.28;54.03;;;14.00;99.90;;;;;;5004504;28;20370;-86
2022/01/16 14:42:26;;;;;;;75.28;52.67;;;13.80;99.90;;;;;;5010328;28;20025;-83
2022/01/16 14:44:52;;;;;;;70.65;50.75;;;13.60;99.90;;;;;;5001735;28;20125;-83
2022/01/16 14:47:19;;;;;;;70.68;52.17;;;13.20;99.90;;;;;;5003703;28;20140;-82
2022/01/16 14:49:45;;;;;;;72.38;55.28;;;12.80;99.90;;;;;;5045560;28;20017;-83
2022/01/16 14:52:12;;;;;;;75.60;53.63;;;12.70;99.90;;;;;;5045363;28;20026;-82
2022/01/16 14:54:39;;;;;;;76.57;54.97;;;12.70;99.90;;;;;;5027660;28;20504;-83
2022/01/16 14:57:05;;;;;;;76.90;55.78;;;12.60;99.90;;;;;;5006707;28;20030;-83
2022/01/16 14:59:33;;;;;;;72.78;54.67;;;12.50;99.90;;;;;;5021574;28;20032;-82
2022/01/16 15:01:59;;;;;;;77.15;58.42;;;12.40;99.90;;;;;;5024352;28;20076;-81
2022/01/16 15:04:25;;;;;;;77.80;56.90;;;12.20;99.90;;;;;;5021121;28;20029;-82
2022/01/16 15:06:51;;;;;;;82.60;62.05;;;11.80;99.90;;;;;;5014350;28;20045;-83
2022/01/16 15:09:17;;;;;;;85.32;63.25;;;11.40;99.90;;;;;;5025794;28;20112;-83
2022/01/16 15:11:50;;;;;;;87.82;64.72;;;11.10;99.90;;;;;;5031379;28;20157;-82
2022/01/16 15:14:16;;;;;;;95.53;68.72;;;10.90;99.90;;;;;;5003041;28;20026;-82
2022/01/16 15:16:43;;;;;;;98.53;70.15;;;10.90;99.90;;;;;;5008955;28;20045;-82
2022/01/16 15:19:16;;;;;;;97.85;67.90;;;10.70;99.90;;;;;;5009860;28;20625;-83
2022/01/16 15:22:09;;;;;;;92.97;69.95;;;10.50;99.90;;;;;;5006191;28;20124;-82
2022/01/16 15:24:34;;;;;;;99.53;75.07;;;10.30;99.90;;;;;;5031252;28;20064;-82
2022/01/16 15:27:04;;;;;;;105.05;74.07;;;10.10;99.90;;;;;;5031471;28;20041;-83
2022/01/16 15:29:29;;;;;;;98.88;72.72;;;10.00;99.90;;;;;;5031049;28;20032;-83
2022/01/16 15:31:58;;;;;;;103.05;74.93;;;9.90;99.90;;;;;;5028170;28;20400;-86
2022/01/16 15:34:27;;;;;;;106.90;78.28;;;9.80;99.90;;;;;;4999386;28;20109;-82
2022/01/16 15:36:53;;;;;;;107.45;77.43;;;9.70;99.90;;;;;;5011031;28;20028;-83
2022/01/16 15:39:27;;;;;;;107.75;78.43;;;9.60;99.90;;;;;;5031453;28;20025;-84
2022/01/16 15:41:53;;;;;;;105.95;78.65;;;9.50;99.90;;;;;;4994792;28;20063;-84
2022/01/16 15:44:19;;;;;;;107.63;80.82;;;9.40;99.90;;;;;;5013488;28;20032;-86
2022/01/16 15:46:45;;;;;;;103.93;81.35;;;9.30;99.90;;;;;;5020112;28;20111;-84
2022/01/16 15:49:14;;;;;;;109.43;82.50;;;9.30;99.90;;;;;;5027746;28;20025;-83
2022/01/16 15:51:40;;;;;;;110.95;83.32;;;9.20;99.90;;;;;;5003347;28;20436;-85
2022/01/16 15:54:06;;;;;;;117.50;85.18;;;9.20;99.90;;;;;;5029143;28;20053;-83
2022/01/16 15:56:32;;;;;;;126.60;91.68;;;9.10;99.90;;;;;;5012092;28;20059;-83
2022/01/16 15:58:58;;;;;;;115.95;91.97;;;9.00;99.90;;;;;;5028123;28;20033;-84
2022/01/16 16:01:23;;;;;;;121.60;92.93;;;9.00;99.90;;;;;;5025362;28;20028;-84
2022/01/16 16:03:49;;;;;;;108.82;85.78;;;8.90;99.90;;;;;;5002504;28;20059;-82
2022/01/16 16:06:15;;;;;;;120.25;88.93;;;8.90;99.90;;;;;;5027082;28;20480;-85
2022/01/16 16:08:44;;;;;;;108.38;86.47;;;8.90;99.90;;;;;;5011720;28;20454;-84
2022/01/16 16:11:10;;;;;;;104.55;76.90;;;8.70;99.90;;;;;;5010810;28;20045;-81
2022/01/16 16:13:36;;;;;;;107.55;79.55;;;8.60;99.90;;;;;;5030226;28;20026;-82
2022/01/16 16:16:02;;;;;;;109.30;82.80;;;8.50;99.90;;;;;;5030320;28;20018;-83
2022/01/16 16:18:28;;;;;;;108.13;80.93;;;8.40;99.90;;;;;;5021595;28;20037;-81
2022/01/16 16:20:54;;;;;;;119.65;83.78;;;8.30;99.90;;;;;;5027191;28;20030;-83
2022/01/16 16:23:20;;;;;;;112.63;83.72;;;8.30;99.90;;;;;;5030502;28;20025;-82
2022/01/16 16:25:46;;;;;;;117.75;89.00;;;8.20;99.90;;;;;;5030344;28;20045;-85
2022/01/16 16:28:15;;;;;;;124.55;94.63;;;8.20;99.90;;;;;;5028445;28;20025;-83
2022/01/16 16:30:41;;;;;;;253.95;153.38;;;8.20;99.90;;;;;;5014405;28;20029;-85
2022/01/16 16:33:10;;;;;;;219.25;133.00;;;8.10;99.90;;;;;;5029297;28;20057;-86
2022/01/16 16:35:35;;;;;;;204.85;132.85;;;8.00;99.90;;;;;;5012963;28;20133;-86
2022/01/16 16:38:02;;;;;;;130.75;93.47;;;7.90;99.90;;;;;;5017344;28;20049;-91
2022/01/16 16:40:28;;;;;;;123.57;91.78;;;7.90;99.90;;;;;;4999101;28;20128;-90
2022/01/16 16:42:54;;;;;;;113.88;87.53;;;7.80;99.90;;;;;;5030753;28;20029;-91
2022/01/16 16:45:21;;;;;;;141.65;95.75;;;7.70;99.90;;;;;;5016833;28;20026;-89
2022/01/16 16:47:47;;;;;;;132.45;99.35;;;7.70;99.90;;;;;;5009277;28;20032;-90
2022/01/16 16:50:15;;;;;;;139.45;102.85;;;7.70;99.90;;;;;;4997477;28;20018;-92
2022/01/16 16:52:42;;;;;;;129.93;99.82;;;7.60;99.90;;;;;;5017568;28;20021;-92
2022/01/16 16:55:12;;;;;;;135.93;105.35;;;7.50;99.90;;;;;;5020748;28;20029;-91
2022/01/16 16:57:38;;;;;;;141.77;107.60;;;7.60;99.90;;;;;;5042670;28;20068;-92
2022/01/16 17:00:08;;;;;;;141.95;104.30;;;7.60;99.90;;;;;;5038689;28;20639;-90
2022/01/16 17:02:33;;;;;;;146.50;110.60;;;7.60;99.90;;;;;;5034082;28;20013;-90
2022/01/16 17:04:59;;;;;;;153.30;113.97;;;7.70;99.90;;;;;;5005665;28;20037;-90
2022/01/16 17:07:27;;;;;;;157.20;114.55;;;7.70;99.90;;;;;;5035505;28;20451;-89
2022/01/16 17:09:53;;;;;;;155.57;114.13;;;7.80;99.90;;;;;;5018987;28;20447;-89
2022/01/16 17:12:19;;;;;;;161.77;118.47;;;7.80;99.90;;;;;;5037035;28;20042;-88
2022/01/16 17:14:44;;;;;;;165.05;122.97;;;7.80;99.90;;;;;;5034714;28;20091;-89
2022/01/16 17:17:13;;;;;;;153.50;113.47;;;7.90;99.90;;;;;;5020614;28;20112;-91
2022/01/16 17:22:10;;;;;;;151.70;117.22;;;8.10;99.90;;;;;;5039710;28;20041;-89
2022/01/16 17:24:37;;;;;;;143.05;102.72;;;8.20;99.90;;;;;;5038974;28;20052;-90
2022/01/16 17:27:04;;;;;;;111.88;87.80;;;8.30;99.90;;;;;;5020088;28;20408;-89
2022/01/16 17:29:30;;;;;;;97.28;73.47;;;8.40;99.90;;;;;;5033786;28;20033;-90
2022/01/16 17:31:57;;;;;;;89.72;68.25;;;8.50;99.90;;;;;;5030499;28;20029;-90
2022/01/16 17:34:23;;;;;;;85.88;62.88;;;8.60;99.90;;;;;;5032739;28;20029;-90
2022/01/16 17:36:49;;;;;;;76.53;57.65;;;8.60;99.90;;;;;;5048472;28;20108;-90
2022/01/16 17:39:14;;;;;;;83.53;56.35;;;8.60;99.90;;;;;;5012956;28;20072;-89
2022/01/16 17:41:40;;;;;;;83.65;58.05;;;8.60;99.90;;;;;;5048787;28;20022;-89
2022/01/16 17:44:07;;;;;;;83.20;56.13;;;8.60;99.90;;;;;;5037033;28;20034;-90
2022/01/16 17:46:32;;;;;;;73.15;49.97;;;8.60;99.90;;;;;;5027644;28;20029;-91